sensor_id;sensor_type;location;lat;lon;timestamp;pressure;altitude;pressure_sealevel;temperature;humidity
19827;BME280;10074;52.018;4.726;2023-04-26T00:00:14;46175.16;;;-144.79;100.00
19827;BME280;10074;52.018;4.726;2023-04-26T00:05:14;46189.19;;;-144.79;100.00
19827;BME280;10074;52.018;4.726;2023-04-26T00:10:15;46211.22;;;-144.79;100.00
19827;BME280;10074;52.018;4.726;2023-04-26T00:15:16;46207.22;;;-144.79;100.00
19827;BME280;10074;52.018;4.726;2023-04-26T00:20:16;46181.16;;;-144.79;100.00
19827;BME280;10074;52.018;4.726;2023-04-26T00:25:16;46199.19;;;-144.79;100.00
19827;BME280;10074;52.018;4.726;2023-04-26T00:30:17;46195.19;;;-144.79;100.00
19827;BME280;10074;52.018;4.726;2023-04-26T00:35:18;46177.16;;;-144.79;100.00
19827;BME280;10074;52.018;4.726;2023-04-26T00:40:18;46201.22;;;-144.79;100.00
19827;BME280;10074;52.018;4.726;2023-04-26T00:45:19;46191.19;;;-144.79;100.00
19827;BME280;10074;52.018;4.726;2023-04-26T00:50:20;46211.22;;;-144.79;100.00
19827;BME280;10074;52.018;4.726;2023-04-26T00:55:20;46187.19;;;-144.79;100.00
19827;BME280;10074;52.018;4.726;2023-04-26T01:00:21;46191.19;;;-144.79;100.00
19827;BME280;10074;52.018;4.726;2023-04-26T01:05:22;46203.22;;;-144.79;100.00
19827;BME280;10074;52.018;4.726;2023-04-26T01:10:22;46175.16;;;-144.79;100.00
19827;BME280;10074;52.018;4.726;2023-04-26T01:15:24;46187.19;;;-144.79;100.00
19827;BME280;10074;52.018;4.726;2023-04-26T01:20:26;46157.09;;;-144.79;100.00
19827;BME280;10074;52.018;4.726;2023-04-26T01:25:27;46167.13;;;-144.79;100.00
19827;BME280;10074;52.018;4.726;2023-04-26T01:30:28;46183.16;;;-144.79;100.00
19827;BME280;10074;52.018;4.726;2023-04-26T01:35:28;46191.19;;;-144.79;100.00
19827;BME280;10074;52.018;4.726;2023-04-26T01:40:29;46189.19;;;-144.79;100.00
19827;BME280;10074;52.018;4.726;2023-04-26T01:45:29;46185.16;;;-144.79;100.00
19827;BME280;10074;52.018;4.726;2023-04-26T01:50:30;46199.19;;;-144.79;100.00
19827;BME280;10074;52.018;4.726;2023-04-26T01:55:30;46185.16;;;-144.79;100.00
19827;BME280;10074;52.018;4.726;2023-04-26T02:00:30;46211.22;;;-144.79;100.00
19827;BME280;10074;52.018;4.726;2023-04-26T02:05:31;46191.19;;;-144.79;100.00
19827;BME280;10074;52.018;4.726;2023-04-26T02:10:31;46191.19;;;-144.79;100.00
19827;BME280;10074;52.018;4.726;2023-04-26T02:15:31;46211.22;;;-144.79;100.00
19827;BME280;10074;52.018;4.726;2023-04-26T02:20:32;46175.16;;;-144.79;100.00
19827;BME280;10074;52.018;4.726;2023-04-26T02:25:32;46175.16;;;-144.79;100.00
19827;BME280;10074;52.018;4.726;2023-04-26T02:30:33;46187.19;;;-144.79;100.00
19827;BME280;10074;52.018;4.726;2023-04-26T02:35:34;46187.19;;;-144.79;100.00
19827;BME280;10074;52.018;4.726;2023-04-26T02:40:35;46175.16;;;-144.79;100.00
19827;BME280;10074;52.018;4.726;2023-04-26T02:45:41;46209.22;;;-144.79;100.00
19827;BME280;10074;52.018;4.726;2023-04-26T02:50:42;46215.25;;;-144.79;100.00
19827;BME280;10074;52.018;4.726;2023-04-26T02:55:42;46189.19;;;-144.79;100.00
19827;BME280;10074;52.018;4.726;2023-04-26T03:00:46;46167.13;;;-144.79;100.00
19827;BME280;10074;52.018;4.726;2023-04-26T03:05:47;46175.16;;;-144.79;100.00
19827;BME280;10074;52.018;4.726;2023-04-26T03:10:47;46189.19;;;-144.79;100.00
19827;BME280;10074;52.018;4.726;2023-04-26T03:15:47;46183.16;;;-144.79;100.00
19827;BME280;10074;52.018;4.726;2023-04-26T03:20:49;46197.19;;;-144.79;100.00
19827;BME280;10074;52.018;4.726;2023-04-26T03:25:49;46175.16;;;-144.79;100.00
19827;BME280;10074;52.018;4.726;2023-04-26T03:30:50;46183.16;;;-144.79;100.00
19827;BME280;10074;52.018;4.726;2023-04-26T03:35:50;46183.16;;;-144.79;100.00
19827;BME280;10074;52.018;4.726;2023-04-26T03:40:51;46173.13;;;-144.79;100.00
19827;BME280;10074;52.018;4.726;2023-04-26T03:45:51;46187.19;;;-144.79;100.00
19827;BME280;10074;52.018;4.726;2023-04-26T03:50:52;46219.25;;;-144.79;100.00
19827;BME280;10074;52.018;4.726;2023-04-26T03:55:52;46173.13;;;-144.79;100.00
19827;BME280;10074;52.018;4.726;2023-04-26T04:00:56;46203.22;;;-144.79;100.00
19827;BME280;10074;52.018;4.726;2023-04-26T04:05:57;46179.16;;;-144.79;100.00
19827;BME280;10074;52.018;4.726;2023-04-26T04:10:57;46167.13;;;-144.79;100.00
19827;BME280;10074;52.018;4.726;2023-04-26T04:15:58;46187.19;;;-144.79;100.00
19827;BME280;10074;52.018;4.726;2023-04-26T04:20:58;46207.22;;;-144.79;100.00
19827;BME280;10074;52.018;4.726;2023-04-26T04:25:58;46165.13;;;-144.79;100.00
19827;BME280;10074;52.018;4.726;2023-04-26T04:30:58;46175.16;;;-144.79;100.00
19827;BME280;10074;52.018;4.726;2023-04-26T04:36:00;46163.13;;;-144.79;100.00
19827;BME280;10074;52.018;4.726;2023-04-26T04:41:00;46175.16;;;-144.79;100.00
19827;BME280;10074;52.018;4.726;2023-04-26T04:46:01;46177.16;;;-144.79;100.00
19827;BME280;10074;52.018;4.726;2023-04-26T04:51:01;46207.22;;;-144.79;100.00
19827;BME280;10074;52.018;4.726;2023-04-26T04:56:01;46203.22;;;-144.79;100.00
19827;BME280;10074;52.018;4.726;2023-04-26T05:01:02;46163.13;;;-144.79;100.00
19827;BME280;10074;52.018;4.726;2023-04-26T05:06:02;46191.19;;;-144.79;100.00
19827;BME280;10074;52.018;4.726;2023-04-26T05:11:03;46167.13;;;-144.79;100.00
19827;BME280;10074;52.018;4.726;2023-04-26T05:16:03;46187.19;;;-144.79;100.00
19827;BME280;10074;52.018;4.726;2023-04-26T05:21:04;46215.25;;;-144.79;100.00
19827;BME280;10074;52.018;4.726;2023-04-26T05:26:05;46189.19;;;-144.79;100.00
19827;BME280;10074;52.018;4.726;2023-04-26T05:31:06;46191.19;;;-144.79;100.00
19827;BME280;10074;52.018;4.726;2023-04-26T05:36:06;46183.16;;;-144.79;100.00
19827;BME280;10074;52.018;4.726;2023-04-26T05:41:08;46193.19;;;-144.79;100.00
19827;BME280;10074;52.018;4.726;2023-04-26T05:46:08;46159.09;;;-144.79;100.00
19827;BME280;10074;52.018;4.726;2023-04-26T05:51:08;46205.22;;;-144.79;100.00
19827;BME280;10074;52.018;4.726;2023-04-26T05:56:09;46173.13;;;-144.79;100.00
19827;BME280;10074;52.018;4.726;2023-04-26T06:01:09;46185.16;;;-144.79;100.00
19827;BME280;10074;52.018;4.726;2023-04-26T06:06:11;46213.25;;;-144.79;100.00
19827;BME280;10074;52.018;4.726;2023-04-26T06:11:11;46191.19;;;-144.79;100.00
19827;BME280;10074;52.018;4.726;2023-04-26T06:16:12;46203.22;;;-144.79;100.00
19827;BME280;10074;52.018;4.726;2023-04-26T06:21:12;46185.16;;;-144.79;100.00
19827;BME280;10074;52.018;4.726;2023-04-26T06:26:12;46171.13;;;-144.79;100.00
19827;BME280;10074;52.018;4.726;2023-04-26T06:31:12;46181.16;;;-144.79;100.00
19827;BME280;10074;52.018;4.726;2023-04-26T06:36:13;46159.09;;;-144.79;100.00
19827;BME280;10074;52.018;4.726;2023-04-26T06:41:13;46177.16;;;-144.79;100.00
19827;BME280;10074;52.018;4.726;2023-04-26T06:46:13;46179.16;;;-144.79;100.00
19827;BME280;10074;52.018;4.726;2023-04-26T06:51:14;46187.19;;;-144.79;100.00
19827;BME280;10074;52.018;4.726;2023-04-26T06:56:14;46219.25;;;-144.79;100.00
19827;BME280;10074;52.018;4.726;2023-04-26T07:01:14;46163.13;;;-144.79;100.00
19827;BME280;10074;52.018;4.726;2023-04-26T07:06:15;46175.16;;;-144.79;100.00
19827;BME280;10074;52.018;4.726;2023-04-26T07:11:15;46197.19;;;-144.79;100.00
19827;BME280;10074;52.018;4.726;2023-04-26T07:16:16;46187.19;;;-144.79;100.00
19827;BME280;10074;52.018;4.726;2023-04-26T07:21:16;46195.19;;;-144.79;100.00
19827;BME280;10074;52.018;4.726;2023-04-26T07:26:16;46187.19;;;-144.79;100.00
19827;BME280;10074;52.018;4.726;2023-04-26T07:31:18;46173.13;;;-144.79;100.00
19827;BME280;10074;52.018;4.726;2023-04-26T07:36:18;46183.16;;;-144.79;100.00
19827;BME280;10074;52.018;4.726;2023-04-26T07:41:18;46213.25;;;-144.79;100.00
19827;BME280;10074;52.018;4.726;2023-04-26T07:46:19;46191.19;;;-144.79;100.00
19827;BME280;10074;52.018;4.726;2023-04-26T07:51:19;46183.16;;;-144.79;100.00
19827;BME280;10074;52.018;4.726;2023-04-26T07:56:20;46183.16;;;-144.79;100.00
19827;BME280;10074;52.018;4.726;2023-04-26T08:01:20;46167.13;;;-144.79;100.00
19827;BME280;10074;52.018;4.726;2023-04-26T08:06:21;46181.16;;;-144.79;100.00
19827;BME280;10074;52.018;4.726;2023-04-26T08:11:21;46161.09;;;-144.79;100.00
19827;BME280;10074;52.018;4.726;2023-04-26T08:16:21;46179.16;;;-144.79;100.00
19827;BME280;10074;52.018;4.726;2023-04-26T08:21:22;46163.13;;;-144.79;100.00
19827;BME280;10074;52.018;4.726;2023-04-26T08:26:22;46175.16;;;-144.79;100.00
19827;BME280;10074;52.018;4.726;2023-04-26T08:31:23;46199.19;;;-144.79;100.00
19827;BME280;10074;52.018;4.726;2023-04-26T08:36:23;46199.19;;;-144.79;100.00
19827;BME280;10074;52.018;4.726;2023-04-26T08:41:24;46167.13;;;-144.79;100.00
19827;BME280;10074;52.018;4.726;2023-04-26T08:46:25;46187.19;;;-144.79;100.00
19827;BME280;10074;52.018;4.726;2023-04-26T08:51:27;46187.19;;;-144.79;100.00
19827;BME280;10074;52.018;4.726;2023-04-26T08:56:28;46163.13;;;-144.79;100.00
19827;BME280;10074;52.018;4.726;2023-04-26T09:01:29;46159.09;;;-144.79;100.00
19827;BME280;10074;52.018;4.726;2023-04-26T09:06:31;46171.13;;;-144.79;100.00
19827;BME280;10074;52.018;4.726;2023-04-26T09:11:59;46183.16;;;-144.79;100.00
19827;BME280;10074;52.018;4.726;2023-04-26T09:17:00;46199.19;;;-144.79;100.00
19827;BME280;10074;52.018;4.726;2023-04-26T09:22:01;46191.19;;;-144.79;100.00
19827;BME280;10074;52.018;4.726;2023-04-26T09:27:02;46213.25;;;-144.79;100.00
19827;BME280;10074;52.018;4.726;2023-04-26T09:32:02;46217.25;;;-144.79;100.00
19827;BME280;10074;52.018;4.726;2023-04-26T09:37:03;46199.19;;;-144.79;100.00
19827;BME280;10074;52.018;4.726;2023-04-26T09:42:04;46229.28;;;-144.79;100.00
19827;BME280;10074;52.018;4.726;2023-04-26T09:47:09;46209.22;;;-144.79;100.00
19827;BME280;10074;52.018;4.726;2023-04-26T09:52:10;46219.25;;;-144.79;100.00
19827;BME280;10074;52.018;4.726;2023-04-26T09:57:12;46197.19;;;-144.79;100.00
19827;BME280;10074;52.018;4.726;2023-04-26T10:02:23;46219.25;;;-144.79;100.00
19827;BME280;10074;52.018;4.726;2023-04-26T10:07:25;46215.25;;;-144.79;100.00
19827;BME280;10074;52.018;4.726;2023-04-26T10:12:25;46223.25;;;-144.79;100.00
19827;BME280;10074;52.018;4.726;2023-04-26T10:17:26;46239.31;;;-144.79;100.00
19827;BME280;10074;52.018;4.726;2023-04-26T10:22:30;46215.25;;;-144.79;100.00
19827;BME280;10074;52.018;4.726;2023-04-26T10:48:28;46231.28;;;-144.79;100.00
19827;BME280;10074;52.018;4.726;2023-04-26T10:59:07;46261.34;;;-144.79;100.00
19827;BME280;10074;52.018;4.726;2023-04-26T11:04:09;46327.53;;;-144.79;100.00
19827;BME280;10074;52.018;4.726;2023-04-26T11:14:36;46399.72;;;-144.79;100.00
19827;BME280;10074;52.018;4.726;2023-04-26T11:19:36;46415.75;;;-144.79;100.00
19827;BME280;10074;52.018;4.726;2023-04-26T11:24:36;46399.72;;;-144.79;100.00
19827;BME280;10074;52.018;4.726;2023-04-26T11:29:38;46443.81;;;-144.79;100.00
19827;BME280;10074;52.018;4.726;2023-04-26T11:34:38;46415.75;;;-144.79;100.00
19827;BME280;10074;52.018;4.726;2023-04-26T11:39:38;46429.78;;;-144.79;100.00
19827;BME280;10074;52.018;4.726;2023-04-26T11:44:39;46403.72;;;-144.79;100.00
19827;BME280;10074;52.018;4.726;2023-04-26T11:49:40;46405.72;;;-144.79;100.00
19827;BME280;10074;52.018;4.726;2023-04-26T11:54:40;46455.84;;;-144.79;100.00
19827;BME280;10074;52.018;4.726;2023-04-26T11:59:43;46421.78;;;-144.79;100.00
19827;BME280;10074;52.018;4.726;2023-04-26T12:04:43;46377.66;;;-144.79;100.00
19827;BME280;10074;52.018;4.726;2023-04-26T12:09:44;46395.69;;;-144.79;100.00
19827;BME280;10074;52.018;4.726;2023-04-26T12:14:45;46361.63;;;-144.79;100.00
19827;BME280;10074;52.018;4.726;2023-04-26T12:19:48;46383.66;;;-144.79;100.00
19827;BME280;10074;52.018;4.726;2023-04-26T12:24:48;46379.66;;;-144.79;100.00
19827;BME280;10074;52.018;4.726;2023-04-26T12:29:49;46379.66;;;-144.79;100.00
19827;BME280;10074;52.018;4.726;2023-04-26T12:34:49;46407.72;;;-144.79;100.00
19827;BME280;10074;52.018;4.726;2023-04-26T12:39:50;46393.69;;;-144.79;100.00
19827;BME280;10074;52.018;4.726;2023-04-26T12:44:50;46393.69;;;-144.79;100.00
19827;BME280;10074;52.018;4.726;2023-04-26T12:49:50;46413.75;;;-144.79;100.00
19827;BME280;10074;52.018;4.726;2023-04-26T12:54:51;46407.72;;;-144.79;100.00
19827;BME280;10074;52.018;4.726;2023-04-26T12:59:51;46487.94;;;-144.79;100.00
19827;BME280;10074;52.018;4.726;2023-04-26T13:04:51;46487.94;;;-144.79;100.00
19827;BME280;10074;52.018;4.726;2023-04-26T13:09:52;46441.81;;;-144.79;100.00
19827;BME280;10074;52.018;4.726;2023-04-26T13:14:53;46445.84;;;-144.79;100.00
19827;BME280;10074;52.018;4.726;2023-04-26T13:19:54;46415.75;;;-144.79;100.00
19827;BME280;10074;52.018;4.726;2023-04-26T13:24:54;46419.75;;;-144.79;100.00
19827;BME280;10074;52.018;4.726;2023-04-26T13:29:54;46443.81;;;-144.79;100.00
19827;BME280;10074;52.018;4.726;2023-04-26T13:34:55;46443.81;;;-144.79;100.00
19827;BME280;10074;52.018;4.726;2023-04-26T13:39:56;46459.88;;;-144.79;100.00
19827;BME280;10074;52.018;4.726;2023-04-26T13:44:57;46467.88;;;-144.79;100.00
19827;BME280;10074;52.018;4.726;2023-04-26T13:49:57;46489.94;;;-144.79;100.00
19827;BME280;10074;52.018;4.726;2023-04-26T13:54:58;46471.91;;;-144.79;100.00
19827;BME280;10074;52.018;4.726;2023-04-26T13:59:58;46508.00;;;-144.79;100.00
19827;BME280;10074;52.018;4.726;2023-04-26T14:04:59;46522.03;;;-144.79;100.00
19827;BME280;10074;52.018;4.726;2023-04-26T14:09:59;46499.97;;;-144.79;100.00
19827;BME280;10074;52.018;4.726;2023-04-26T14:15:00;46518.03;;;-144.79;100.00
19827;BME280;10074;52.018;4.726;2023-04-26T14:20:06;46499.97;;;-144.79;100.00
19827;BME280;10074;52.018;4.726;2023-04-26T14:25:07;46560.13;;;-144.79;100.00
19827;BME280;10074;52.018;4.726;2023-04-26T14:30:08;46578.19;;;-144.79;100.00
19827;BME280;10074;52.018;4.726;2023-04-26T14:35:08;46592.22;;;-144.79;100.00
19827;BME280;10074;52.018;4.726;2023-04-26T14:40:10;46642.34;;;-144.79;100.00
19827;BME280;10074;52.018;4.726;2023-04-26T14:45:11;46624.28;;;-144.79;100.00
19827;BME280;10074;52.018;4.726;2023-04-26T14:50:11;46640.34;;;-144.79;100.00
19827;BME280;10074;52.018;4.726;2023-04-26T14:55:16;46688.47;;;-144.79;100.00
19827;BME280;10074;52.018;4.726;2023-04-26T15:00:21;46696.47;;;-144.79;100.00
19827;BME280;10074;52.018;4.726;2023-04-26T15:05:22;46716.53;;;-144.79;100.00
19827;BME280;10074;52.018;4.726;2023-04-26T15:10:23;46708.50;;;-144.79;100.00
19827;BME280;10074;52.018;4.726;2023-04-26T15:15:23;46710.53;;;-144.79;100.00
19827;BME280;10074;52.018;4.726;2023-04-26T15:20:23;46680.44;;;-144.79;100.00
19827;BME280;10074;52.018;4.726;2023-04-26T15:25:24;46696.47;;;-144.79;100.00
19827;BME280;10074;52.018;4.726;2023-04-26T15:30:24;46712.53;;;-144.79;100.00
19827;BME280;10074;52.018;4.726;2023-04-26T15:35:25;46692.47;;;-144.79;100.00
19827;BME280;10074;52.018;4.726;2023-04-26T15:40:25;46680.44;;;-144.79;100.00
19827;BME280;10074;52.018;4.726;2023-04-26T15:45:26;46710.53;;;-144.79;100.00
19827;BME280;10074;52.018;4.726;2023-04-26T15:50:26;46680.44;;;-144.79;100.00
19827;BME280;10074;52.018;4.726;2023-04-26T15:55:27;46706.50;;;-144.79;100.00
19827;BME280;10074;52.018;4.726;2023-04-26T16:00:27;46718.53;;;-144.79;100.00
19827;BME280;10074;52.018;4.726;2023-04-26T16:05:27;46678.44;;;-144.79;100.00
19827;BME280;10074;52.018;4.726;2023-04-26T16:10:28;46730.56;;;-144.79;100.00
19827;BME280;10074;52.018;4.726;2023-04-26T16:15:28;46656.38;;;-144.79;100.00
19827;BME280;10074;52.018;4.726;2023-04-26T16:20:28;46678.44;;;-144.79;100.00
19827;BME280;10074;52.018;4.726;2023-04-26T16:25:30;46696.47;;;-144.79;100.00
19827;BME280;10074;52.018;4.726;2023-04-26T16:30:30;46700.50;;;-144.79;100.00
19827;BME280;10074;52.018;4.726;2023-04-26T16:35:31;46660.38;;;-144.79;100.00
19827;BME280;10074;52.018;4.726;2023-04-26T16:40:31;46704.50;;;-144.79;100.00
19827;BME280;10074;52.018;4.726;2023-04-26T16:45:31;46662.41;;;-144.79;100.00
19827;BME280;10074;52.018;4.726;2023-04-26T16:50:32;46680.44;;;-144.79;100.00
19827;BME280;10074;52.018;4.726;2023-04-26T16:55:32;46680.44;;;-144.79;100.00
19827;BME280;10074;52.018;4.726;2023-04-26T17:00:32;46666.41;;;-144.79;100.00
19827;BME280;10074;52.018;4.726;2023-04-26T17:05:40;46682.44;;;-144.79;100.00
19827;BME280;10074;52.018;4.726;2023-04-26T17:10:41;46666.41;;;-144.79;100.00
19827;BME280;10074;52.018;4.726;2023-04-26T17:15:42;46674.44;;;-144.79;100.00
19827;BME280;10074;52.018;4.726;2023-04-26T17:20:42;46652.38;;;-144.79;100.00
19827;BME280;10074;52.018;4.726;2023-04-26T17:25:43;46646.34;;;-144.79;100.00
19827;BME280;10074;52.018;4.726;2023-04-26T17:30:43;46644.34;;;-144.79;100.00
19827;BME280;10074;52.018;4.726;2023-04-26T17:35:43;46604.25;;;-144.79;100.00
19827;BME280;10074;52.018;4.726;2023-04-26T17:40:44;46590.22;;;-144.79;100.00
19827;BME280;10074;52.018;4.726;2023-04-26T17:45:45;46600.22;;;-144.79;100.00
19827;BME280;10074;52.018;4.726;2023-04-26T17:50:45;46540.06;;;-144.79;100.00
19827;BME280;10074;52.018;4.726;2023-04-26T17:55:45;46534.06;;;-144.79;100.00
19827;BME280;10074;52.018;4.726;2023-04-26T18:00:47;46503.97;;;-144.79;100.00
19827;BME280;10074;52.018;4.726;2023-04-26T18:05:47;46503.97;;;-144.79;100.00
19827;BME280;10074;52.018;4.726;2023-04-26T18:10:48;46451.84;;;-144.79;100.00
19827;BME280;10074;52.018;4.726;2023-04-26T18:15:50;46483.94;;;-144.79;100.00
19827;BME280;10074;52.018;4.726;2023-04-26T18:20:53;46413.75;;;-144.79;100.00
19827;BME280;10074;52.018;4.726;2023-04-26T18:25:53;46375.66;;;-144.79;100.00
19827;BME280;10074;52.018;4.726;2023-04-26T18:30:57;46381.66;;;-144.79;100.00
19827;BME280;10074;52.018;4.726;2023-04-26T18:35:58;46383.66;;;-144.79;100.00
19827;BME280;10074;52.018;4.726;2023-04-26T18:40:58;46383.66;;;-144.79;100.00
19827;BME280;10074;52.018;4.726;2023-04-26T18:45:58;46381.66;;;-144.79;100.00
19827;BME280;10074;52.018;4.726;2023-04-26T18:50:59;46373.66;;;-144.79;100.00
19827;BME280;10074;52.018;4.726;2023-04-26T18:56:00;46361.63;;;-144.79;100.00
19827;BME280;10074;52.018;4.726;2023-04-26T19:01:00;46341.56;;;-144.79;100.00
19827;BME280;10074;52.018;4.726;2023-04-26T19:06:06;46401.72;;;-144.79;100.00
19827;BME280;10074;52.018;4.726;2023-04-26T19:11:06;46391.69;;;-144.79;100.00
19827;BME280;10074;52.018;4.726;2023-04-26T19:16:08;46391.69;;;-144.79;100.00
19827;BME280;10074;52.018;4.726;2023-04-26T19:21:09;46417.75;;;-144.79;100.00
19827;BME280;10074;52.018;4.726;2023-04-26T19:26:10;46395.69;;;-144.79;100.00
19827;BME280;10074;52.018;4.726;2023-04-26T19:31:13;46369.63;;;-144.79;100.00
19827;BME280;10074;52.018;4.726;2023-04-26T19:36:13;46377.66;;;-144.79;100.00
19827;BME280;10074;52.018;4.726;2023-04-26T19:41:13;46399.72;;;-144.79;100.00
19827;BME280;10074;52.018;4.726;2023-04-26T19:46:14;46369.63;;;-144.79;100.00
19827;BME280;10074;52.018;4.726;2023-04-26T19:51:15;46391.69;;;-144.79;100.00
19827;BME280;10074;52.018;4.726;2023-04-26T19:56:16;46389.69;;;-144.79;100.00
19827;BME280;10074;52.018;4.726;2023-04-26T20:01:16;46383.66;;;-144.79;100.00
19827;BME280;10074;52.018;4.726;2023-04-26T20:06:17;46405.72;;;-144.79;100.00
19827;BME280;10074;52.018;4.726;2023-04-26T20:11:17;46419.75;;;-144.79;100.00
19827;BME280;10074;52.018;4.726;2023-04-26T20:16:18;46389.69;;;-144.79;100.00
19827;BME280;10074;52.018;4.726;2023-04-26T20:21:19;46429.78;;;-144.79;100.00
19827;BME280;10074;52.018;4.726;2023-04-26T20:26:19;46409.75;;;-144.79;100.00
19827;BME280;10074;52.018;4.726;2023-04-26T20:31:19;46431.78;;;-144.79;100.00
19827;BME280;10074;52.018;4.726;2023-04-26T20:36:20;46419.75;;;-144.79;100.00
19827;BME280;10074;52.018;4.726;2023-04-26T20:41:20;46409.75;;;-144.79;100.00
19827;BME280;10074;52.018;4.726;2023-04-26T20:46:20;46423.78;;;-144.79;100.00
19827;BME280;10074;52.018;4.726;2023-04-26T20:51:21;46419.75;;;-144.79;100.00
19827;BME280;10074;52.018;4.726;2023-04-26T20:56:21;46411.75;;;-144.79;100.00
19827;BME280;10074;52.018;4.726;2023-04-26T21:01:21;46403.72;;;-144.79;100.00
19827;BME280;10074;52.018;4.726;2023-04-26T21:06:21;46413.75;;;-144.79;100.00
19827;BME280;10074;52.018;4.726;2023-04-26T21:11:22;46419.75;;;-144.79;100.00
19827;BME280;10074;52.018;4.726;2023-04-26T21:16:22;46429.78;;;-144.79;100.00
19827;BME280;10074;52.018;4.726;2023-04-26T21:21:22;46391.69;;;-144.79;100.00
19827;BME280;10074;52.018;4.726;2023-04-26T21:26:23;46361.63;;;-144.79;100.00
19827;BME280;10074;52.018;4.726;2023-04-26T21:31:23;46357.59;;;-144.79;100.00
19827;BME280;10074;52.018;4.726;2023-04-26T21:36:24;46375.66;;;-144.79;100.00
19827;BME280;10074;52.018;4.726;2023-04-26T21:41:25;46381.66;;;-144.79;100.00
19827;BME280;10074;52.018;4.726;2023-04-26T21:46:26;46397.72;;;-144.79;100.00
19827;BME280;10074;52.018;4.726;2023-04-26T21:51:26;46379.66;;;-144.79;100.00
19827;BME280;10074;52.018;4.726;2023-04-26T21:56:26;46377.66;;;-144.79;100.00
19827;BME280;10074;52.018;4.726;2023-04-26T22:01:27;46391.69;;;-144.79;100.00
19827;BME280;10074;52.018;4.726;2023-04-26T22:06:27;46371.63;;;-144.79;100.00
19827;BME280;10074;52.018;4.726;2023-04-26T22:11:28;46375.66;;;-144.79;100.00
19827;BME280;10074;52.018;4.726;2023-04-26T22:16:28;46367.63;;;-144.79;100.00
19827;BME280;10074;52.018;4.726;2023-04-26T22:21:28;46377.66;;;-144.79;100.00
19827;BME280;10074;52.018;4.726;2023-04-26T22:26:28;46369.63;;;-144.79;100.00
19827;BME280;10074;52.018;4.726;2023-04-26T22:31:29;46367.63;;;-144.79;100.00
19827;BME280;10074;52.018;4.726;2023-04-26T22:36:29;46393.69;;;-144.79;100.00
19827;BME280;10074;52.018;4.726;2023-04-26T22:41:30;46335.53;;;-144.79;100.00
19827;BME280;10074;52.018;4.726;2023-04-26T22:46:31;46369.63;;;-144.79;100.00
19827;BME280;10074;52.018;4.726;2023-04-26T22:51:31;46355.59;;;-144.79;100.00
19827;BME280;10074;52.018;4.726;2023-04-26T22:56:31;46343.56;;;-144.79;100.00
19827;BME280;10074;52.018;4.726;2023-04-26T23:01:31;46361.63;;;-144.79;100.00
19827;BME280;10074;52.018;4.726;2023-04-26T23:06:32;46351.59;;;-144.79;100.00
19827;BME280;10074;52.018;4.726;2023-04-26T23:11:32;46351.59;;;-144.79;100.00
19827;BME280;10074;52.018;4.726;2023-04-26T23:16:32;46391.69;;;-144.79;100.00
19827;BME280;10074;52.018;4.726;2023-04-26T23:21:33;46363.63;;;-144.79;100.00
19827;BME280;10074;52.018;4.726;2023-04-26T23:26:33;46351.59;;;-144.79;100.00
19827;BME280;10074;52.018;4.726;2023-04-26T23:31:33;46327.53;;;-144.79;100.00
19827;BME280;10074;52.018;4.726;2023-04-26T23:36:34;46369.63;;;-144.79;100.00
19827;BME280;10074;52.018;4.726;2023-04-26T23:41:34;46343.56;;;-144.79;100.00
19827;BME280;10074;52.018;4.726;2023-04-26T23:46:34;46305.47;;;-144.79;100.00
19827;BME280;10074;52.018;4.726;2023-04-26T23:51:35;46299.47;;;-144.79;100.00
19827;BME280;10074;52.018;4.726;2023-04-26T23:56:35;46317.50;;;-144.79;100.00
